createdAt,value
2018-09-06T00:01:55.736Z,2.50
2018-09-06T00:04:24.558Z,2.10
2018-09-06T00:06:53.579Z,2.30
2018-09-06T00:09:22.341Z,1.87
2018-09-06T00:11:51.851Z,2.70
2018-09-06T00:14:20.640Z,2.00
2018-09-06T00:16:49.378Z,2.10
2018-09-06T00:19:17.989Z,2.07
2018-09-06T00:21:46.780Z,2.40
2018-09-06T00:24:15.751Z,2.30
2018-09-06T00:26:44.674Z,2.10
2018-09-06T00:29:13.352Z,1.90
2018-09-06T00:31:42.064Z,2.20
2018-09-06T00:34:10.695Z,2.63
2018-09-06T00:36:39.492Z,2.30
2018-09-06T00:39:08.952Z,2.10
2018-09-06T00:41:37.672Z,2.20
2018-09-06T00:44:06.788Z,1.90
2018-09-06T00:46:35.470Z,2.00
2018-09-06T00:49:04.193Z,2.20
2018-09-06T00:51:32.896Z,2.10
2018-09-06T00:54:01.920Z,1.90
2018-09-06T00:56:30.586Z,2.27
2018-09-06T00:58:59.386Z,1.93
2018-09-06T01:01:28.154Z,1.93
2018-09-06T01:03:57.098Z,2.00
2018-09-06T01:06:25.723Z,2.40
2018-09-06T01:08:54.399Z,2.07
2018-09-06T01:11:23.073Z,2.13
2018-09-06T01:13:51.928Z,2.03
2018-09-06T01:16:20.677Z,2.10
2018-09-06T01:18:49.403Z,2.37
2018-09-06T01:21:18.146Z,2.20
2018-09-06T01:23:46.824Z,2.07
2018-09-06T01:26:15.548Z,1.80
2018-09-06T01:28:44.209Z,1.83
2018-09-06T01:31:12.839Z,2.20
2018-09-06T01:33:41.552Z,2.10
2018-09-06T01:36:15.658Z,1.90
2018-09-06T01:38:44.312Z,2.13
2018-09-06T01:41:13.010Z,2.10
2018-09-06T01:43:41.928Z,2.53
2018-09-06T01:46:10.822Z,2.00
2018-09-06T01:48:39.849Z,2.00
2018-09-06T01:51:08.669Z,2.50
2018-09-06T01:53:37.562Z,2.20
2018-09-06T01:56:06.478Z,2.13
2018-09-06T01:58:35.188Z,2.40
2018-09-06T02:01:03.960Z,2.07
2018-09-06T02:03:32.793Z,1.90
2018-09-06T02:06:01.877Z,1.90
2018-09-06T02:08:30.707Z,2.10
2018-09-06T02:10:59.648Z,2.17
2018-09-06T02:13:28.486Z,2.23
2018-09-06T02:15:57.460Z,1.80
2018-09-06T02:18:26.500Z,1.80
2018-09-06T02:20:55.308Z,1.93
2018-09-06T02:23:24.120Z,2.07
2018-09-06T02:25:52.927Z,2.03
2018-09-06T02:28:21.622Z,2.00
2018-09-06T02:30:50.568Z,1.80
2018-09-06T02:33:19.670Z,2.10
2018-09-06T02:35:48.545Z,1.97
2018-09-06T02:38:17.522Z,2.03
2018-09-06T02:40:46.393Z,1.67
2018-09-06T02:43:15.064Z,2.20
2018-09-06T02:45:44.806Z,1.83
2018-09-06T02:48:13.576Z,2.40
2018-09-06T02:50:47.823Z,1.93
2018-09-06T02:53:16.647Z,1.70
2018-09-06T02:55:46.407Z,2.20
2018-09-06T02:58:15.114Z,2.20
2018-09-06T03:00:43.868Z,2.20
2018-09-06T03:03:12.969Z,2.10
2018-09-06T03:05:41.800Z,1.90
2018-09-06T03:08:10.749Z,1.80
2018-09-06T03:10:43.528Z,1.80
2018-09-06T03:13:12.249Z,1.80
2018-09-06T03:15:40.962Z,2.00
2018-09-06T03:18:09.989Z,1.83
2018-09-06T03:20:38.855Z,1.90
2018-09-06T03:23:07.628Z,1.80
2018-09-06T03:25:36.494Z,2.07
2018-09-06T03:28:05.709Z,1.97
2018-09-06T03:30:34.497Z,2.17
2018-09-06T03:33:03.669Z,2.03
2018-09-06T03:35:32.777Z,1.90
2018-09-06T03:38:01.684Z,1.83
2018-09-06T03:40:30.390Z,1.90
2018-09-06T03:42:59.135Z,2.10
2018-09-06T03:45:27.734Z,1.90
2018-09-06T03:47:56.362Z,2.20
2018-09-06T03:50:25.076Z,2.13
2018-09-06T03:52:53.843Z,1.97
2018-09-06T03:55:22.670Z,2.23
2018-09-06T03:57:51.478Z,1.80
2018-09-06T04:00:20.391Z,2.10
2018-09-06T04:02:49.047Z,2.10
2018-09-06T04:05:18.078Z,2.10
2018-09-06T04:07:46.868Z,2.10
2018-09-06T04:10:15.540Z,2.43
2018-09-06T04:12:44.287Z,2.20
2018-09-06T04:15:13.015Z,2.50
2018-09-06T04:17:41.611Z,2.10
2018-09-06T04:20:10.560Z,2.20
2018-09-06T04:22:43.885Z,2.10
2018-09-06T04:25:12.748Z,2.37
2018-09-06T04:27:41.531Z,2.40
2018-09-06T04:30:10.660Z,2.00
2018-09-06T04:32:39.491Z,1.60
2018-09-06T04:35:08.261Z,1.90
2018-09-06T04:37:36.938Z,1.80
2018-09-06T04:40:05.796Z,2.03
2018-09-06T04:42:34.799Z,2.00
2018-09-06T04:45:03.836Z,2.77
2018-09-06T04:47:32.695Z,2.20
2018-09-06T04:50:01.672Z,2.20
2018-09-06T04:52:30.481Z,2.30
2018-09-06T04:54:59.093Z,2.27
2018-09-06T04:57:27.734Z,2.67
2018-09-06T04:59:56.628Z,2.10
2018-09-06T05:02:25.389Z,2.17
2018-09-06T05:04:54.018Z,2.00
2018-09-06T05:07:22.779Z,2.47
2018-09-06T05:09:51.598Z,1.90
2018-09-06T05:12:20.226Z,2.20
2018-09-06T05:14:49.346Z,2.00
2018-09-06T05:17:18.427Z,1.90
2018-09-06T05:19:47.184Z,2.60
2018-09-06T05:22:15.820Z,2.17
2018-09-06T05:24:44.581Z,1.77
2018-09-06T05:27:13.302Z,2.50
2018-09-06T05:29:41.873Z,2.10
2018-09-06T05:32:10.559Z,2.03
2018-09-06T05:34:39.439Z,1.77
2018-09-06T05:37:08.217Z,1.93
2018-09-06T05:39:37.008Z,2.07
2018-09-06T05:42:05.768Z,1.77
2018-09-06T05:44:34.511Z,1.73
2018-09-06T05:47:03.435Z,1.67
2018-09-06T05:49:32.154Z,1.93
2018-09-06T05:52:01.124Z,2.00
2018-09-06T05:54:29.938Z,2.20
2018-09-06T05:56:58.748Z,2.03
2018-09-06T05:59:27.483Z,2.00
2018-09-06T06:01:56.107Z,1.53
2018-09-06T06:04:24.797Z,1.70
2018-09-06T06:06:53.447Z,1.60
2018-09-06T06:09:22.300Z,1.70
2018-09-06T06:11:51.292Z,1.70
2018-09-06T06:14:20.063Z,1.90
2018-09-06T06:16:48.819Z,1.60
2018-09-06T06:19:17.650Z,1.50
2018-09-06T06:21:46.323Z,1.57
2018-09-06T06:24:15.215Z,1.57
2018-09-06T06:26:43.957Z,1.70
2018-09-06T06:29:12.774Z,1.60
2018-09-06T06:31:41.384Z,1.80
2018-09-06T06:34:10.274Z,1.80
2018-09-06T06:36:39.191Z,1.80
2018-09-06T06:39:10.911Z,2.23
2018-09-06T06:41:39.787Z,1.83
2018-09-06T06:44:08.626Z,2.10
2018-09-06T06:46:37.364Z,2.03
2018-09-06T06:49:06.575Z,2.00
2018-09-06T06:51:35.464Z,2.10
2018-09-06T06:54:04.584Z,2.07
2018-09-06T06:56:33.433Z,1.80
2018-09-06T06:59:02.116Z,2.10
2018-09-06T07:01:30.817Z,2.03
2018-09-06T07:03:59.544Z,2.20
2018-09-06T07:06:28.357Z,1.90
2018-09-06T07:08:57.057Z,2.10
2018-09-06T07:11:25.920Z,2.13
2018-09-06T07:13:54.916Z,2.20
2018-09-06T07:16:23.639Z,2.30
2018-09-06T07:18:53.062Z,2.20
2018-09-06T07:21:21.952Z,2.33
2018-09-06T07:23:50.911Z,2.50
2018-09-06T07:26:19.617Z,2.50
2018-09-06T07:28:48.506Z,2.20
2018-09-06T07:31:17.325Z,2.03
2018-09-06T07:33:46.070Z,2.00
2018-09-06T07:36:15.079Z,2.30
2018-09-06T07:38:44.153Z,1.73
2018-09-06T07:41:13.255Z,2.27
2018-09-06T07:43:42.220Z,2.00
2018-09-06T07:46:11.080Z,2.10
2018-09-06T07:48:39.910Z,2.47
2018-09-06T07:51:08.618Z,1.90
2018-09-06T07:53:37.280Z,2.23
2018-09-06T07:56:06.052Z,2.17
2018-09-06T07:58:34.787Z,2.23
2018-09-06T08:01:03.517Z,2.00
2018-09-06T08:03:32.437Z,2.20
2018-09-06T08:06:01.310Z,2.00
2018-09-06T08:08:30.229Z,2.07
2018-09-06T08:10:59.020Z,2.03
2018-09-06T08:13:27.808Z,2.20
2018-09-06T08:15:56.450Z,2.27
2018-09-06T08:18:25.242Z,2.37
2018-09-06T08:20:54.230Z,2.10
2018-09-06T08:23:23.143Z,2.00
2018-09-06T08:25:52.112Z,2.43
2018-09-06T08:28:20.849Z,2.17
2018-09-06T08:30:49.866Z,2.20
2018-09-06T08:33:18.745Z,1.97
2018-09-06T08:35:47.768Z,2.17
2018-09-06T08:38:16.726Z,1.87
2018-09-06T08:40:45.860Z,2.03
2018-09-06T08:43:14.668Z,1.50
2018-09-06T08:45:43.669Z,1.87
2018-09-06T08:48:12.476Z,1.93
2018-09-06T08:50:41.221Z,1.70
2018-09-06T08:53:09.905Z,1.73
2018-09-06T08:55:38.569Z,1.50
2018-09-06T08:58:07.184Z,1.90
2018-09-06T09:00:38.224Z,1.70
2018-09-06T09:03:07.182Z,1.67
2018-09-06T09:05:36.103Z,1.90
2018-09-06T09:08:05.383Z,2.10
2018-09-06T09:10:34.083Z,2.10
2018-09-06T09:13:02.987Z,1.80
2018-09-06T09:15:31.623Z,1.80
2018-09-06T09:18:00.351Z,2.07
2018-09-06T09:20:29.067Z,1.60
2018-09-06T09:22:57.832Z,1.53
2018-09-06T09:25:26.709Z,1.60
2018-09-06T09:27:55.616Z,1.60
2018-09-06T09:30:24.436Z,1.50
2018-09-06T09:32:53.542Z,1.63
2018-09-06T09:35:22.458Z,1.90
2018-09-06T09:37:51.168Z,1.67
2018-09-06T09:40:20.181Z,1.53
2018-09-06T09:42:49.750Z,1.80
2018-09-06T09:45:18.454Z,1.80
2018-09-06T09:47:47.328Z,1.87
2018-09-06T09:52:44.395Z,1.60
2018-09-06T09:55:13.037Z,1.70
2018-09-06T09:57:41.917Z,1.80
2018-09-06T10:00:10.581Z,1.90
2018-09-06T10:02:44.708Z,2.10
2018-09-06T10:05:18.799Z,1.67
2018-09-06T10:07:52.801Z,1.70
2018-09-06T10:10:21.960Z,1.87
2018-09-06T10:12:50.625Z,1.60
2018-09-06T10:15:19.604Z,1.70
2018-09-06T10:17:48.533Z,1.60
2018-09-06T10:20:17.720Z,1.70
2018-09-06T10:22:46.765Z,1.33
2018-09-06T10:25:15.485Z,1.40
2018-09-06T10:27:44.784Z,1.47
2018-09-06T10:30:13.695Z,1.20
2018-09-06T10:32:42.617Z,1.83
2018-09-06T10:35:11.761Z,1.50
2018-09-06T10:37:40.836Z,1.80
2018-09-06T10:40:09.193Z,2.67
2018-09-06T10:42:38.208Z,2.20
2018-09-06T10:45:07.325Z,1.43
2018-09-06T10:47:35.959Z,1.63
2018-09-06T10:50:05.928Z,1.40
2018-09-06T10:52:34.694Z,1.50
2018-09-06T10:55:03.624Z,1.30
2018-09-06T10:57:32.549Z,2.13
2018-09-06T11:00:01.366Z,1.70
2018-09-06T11:02:30.188Z,1.40
2018-09-06T11:04:59.088Z,1.97
2018-09-06T11:07:28.011Z,1.13
2018-09-06T11:09:56.995Z,1.00
2018-09-06T11:12:25.892Z,1.03
2018-09-06T11:14:54.921Z,0.87
2018-09-06T11:17:23.712Z,1.00
2018-09-06T11:19:52.387Z,0.90
2018-09-06T11:22:21.385Z,1.20
2018-09-06T11:24:50.331Z,1.00
2018-09-06T11:27:18.996Z,1.07
2018-09-06T11:29:47.910Z,0.77
2018-09-06T11:32:17.118Z,1.57
2018-09-06T11:34:45.865Z,0.80
2018-09-06T11:37:14.961Z,0.83
2018-09-06T11:39:43.607Z,1.50
2018-09-06T11:42:13.030Z,0.90
2018-09-06T11:44:41.296Z,0.90
2018-09-06T11:47:10.319Z,1.00
2018-09-06T11:49:39.087Z,1.10
2018-09-06T11:52:08.392Z,0.90
2018-09-06T11:54:37.214Z,1.03
2018-09-06T11:57:06.257Z,1.77
2018-09-06T11:59:35.293Z,1.07
2018-09-06T12:02:04.492Z,1.03
2018-09-06T12:04:33.086Z,1.17
2018-09-06T12:07:01.783Z,0.80
2018-09-06T12:09:30.666Z,1.07
2018-09-06T12:11:59.619Z,1.00
2018-09-06T12:14:28.322Z,1.00
2018-09-06T12:16:56.983Z,1.10
2018-09-06T12:19:25.620Z,0.90
2018-09-06T12:21:54.547Z,0.80
2018-09-06T12:24:23.476Z,1.10
2018-09-06T12:26:52.217Z,1.10
2018-09-06T12:29:21.199Z,1.10
2018-09-06T12:31:50.179Z,0.87
2018-09-06T12:34:19.209Z,0.90
2018-09-06T12:36:48.749Z,1.33
2018-09-06T12:39:17.607Z,1.57
2018-09-06T12:41:46.324Z,0.93
2018-09-06T12:44:15.448Z,1.10
2018-09-06T12:46:44.443Z,3.20
2018-09-06T12:49:13.223Z,1.20
2018-09-06T12:51:42.244Z,1.03
2018-09-06T12:54:10.934Z,1.43
2018-09-06T12:56:39.991Z,1.03
2018-09-06T12:59:08.849Z,1.10
2018-09-06T13:01:37.556Z,1.03
2018-09-06T13:04:06.759Z,1.00
2018-09-06T13:06:35.485Z,1.17
2018-09-06T13:09:05.361Z,1.10
2018-09-06T13:11:33.961Z,1.53
2018-09-06T13:14:02.677Z,1.00
2018-09-06T13:16:31.562Z,1.30
2018-09-06T13:19:00.499Z,1.20
2018-09-06T13:21:29.204Z,0.80
2018-09-06T13:23:57.797Z,1.87
2018-09-06T13:26:26.637Z,1.30
2018-09-06T13:28:55.381Z,1.47
2018-09-06T13:31:24.597Z,1.27
2018-09-06T13:33:53.289Z,1.33
2018-09-06T13:36:22.246Z,1.30
2018-09-06T13:38:51.094Z,1.30
2018-09-06T13:41:19.972Z,1.10
2018-09-06T13:43:48.807Z,1.43
2018-09-06T13:46:17.833Z,1.43
2018-09-06T13:48:46.773Z,1.13
2018-09-06T13:51:15.616Z,1.03
2018-09-06T13:53:44.421Z,1.20
2018-09-06T13:56:13.288Z,1.20
2018-09-06T13:58:42.128Z,2.40
2018-09-06T14:01:11.106Z,1.60
2018-09-06T14:03:39.910Z,0.80
2018-09-06T14:06:08.938Z,0.90
2018-09-06T14:08:37.932Z,1.37
2018-09-06T14:11:06.739Z,1.10
2018-09-06T14:13:35.475Z,1.37
2018-09-06T14:16:04.310Z,1.30
2018-09-06T14:18:33.061Z,1.13
2018-09-06T14:21:01.903Z,1.20
2018-09-06T14:23:30.726Z,1.20
2018-09-06T14:25:59.495Z,1.40
2018-09-06T14:28:28.070Z,1.10
2018-09-06T14:30:56.890Z,1.43
2018-09-06T14:33:25.948Z,1.30
2018-09-06T14:35:54.866Z,1.50
2018-09-06T14:38:23.703Z,1.10
2018-09-06T14:40:52.537Z,1.07
2018-09-06T14:43:21.340Z,1.30
2018-09-06T14:45:50.035Z,1.23
2018-09-06T14:48:18.809Z,1.50
2018-09-06T14:50:47.820Z,1.80
2018-09-06T14:53:16.516Z,1.10
2018-09-06T14:55:45.157Z,1.83
2018-09-06T14:58:13.939Z,1.63
2018-09-06T15:00:43.101Z,1.27
2018-09-06T15:03:11.723Z,1.27
2018-09-06T15:05:40.395Z,1.27
2018-09-06T15:08:09.371Z,1.30
2018-09-06T15:10:38.632Z,1.50
2018-09-06T15:13:07.623Z,1.30
2018-09-06T15:15:36.261Z,1.20
2018-09-06T15:18:04.938Z,1.40
2018-09-06T15:20:33.832Z,1.10
2018-09-06T15:23:02.760Z,1.20
2018-09-06T15:25:31.444Z,1.33
2018-09-06T15:28:00.442Z,1.37
2018-09-06T15:30:29.369Z,1.50
2018-09-06T15:32:58.162Z,1.50
2018-09-06T15:35:26.976Z,1.87
2018-09-06T15:37:56.052Z,1.30
2018-09-06T15:40:25.964Z,1.70
2018-09-06T15:42:54.679Z,1.97
2018-09-06T15:45:23.507Z,1.70
2018-09-06T15:47:52.610Z,1.80
2018-09-06T15:50:21.569Z,1.77
2018-09-06T15:52:50.488Z,2.57
2018-09-06T15:55:19.177Z,2.20
2018-09-06T15:57:47.960Z,2.10
2018-09-06T16:00:16.624Z,1.90
2018-09-06T16:02:45.473Z,2.00
2018-09-06T16:05:14.516Z,2.03
2018-09-06T16:07:43.875Z,2.87
2018-09-06T16:10:12.558Z,2.63
2018-09-06T16:12:41.241Z,2.63
2018-09-06T16:15:10.361Z,1.50
2018-09-06T16:17:39.324Z,2.20
2018-09-06T16:20:09.198Z,2.40
2018-09-06T16:22:38.179Z,2.60
2018-09-06T16:25:06.933Z,2.37
2018-09-06T16:27:35.810Z,2.40
2018-09-06T16:30:05.229Z,2.30
2018-09-06T16:32:34.001Z,2.73
2018-09-06T16:35:02.761Z,2.90
2018-09-06T16:37:31.502Z,2.33
2018-09-06T16:40:00.381Z,2.47
2018-09-06T16:42:29.114Z,2.63
2018-09-06T16:44:57.991Z,2.20
2018-09-06T16:47:26.669Z,2.20
2018-09-06T16:49:55.627Z,2.20
2018-09-06T16:52:24.264Z,2.57
2018-09-06T16:54:53.376Z,2.23
2018-09-06T16:57:22.250Z,2.53
2018-09-06T16:59:51.001Z,2.67
2018-09-06T17:02:19.895Z,2.23
2018-09-06T17:04:49.280Z,2.60
2018-09-06T17:07:18.090Z,2.47
2018-09-06T17:09:46.942Z,2.57
2018-09-06T17:12:15.858Z,2.63
2018-09-06T17:14:44.547Z,2.60
2018-09-06T17:17:13.317Z,2.30
2018-09-06T17:19:41.990Z,2.40
2018-09-06T17:22:10.652Z,2.77
2018-09-06T17:24:39.487Z,3.33
2018-09-06T17:27:08.268Z,3.20
2018-09-06T17:29:36.943Z,3.00
2018-09-06T17:32:05.690Z,2.57
2018-09-06T17:34:34.568Z,2.97
2018-09-06T17:37:03.764Z,3.00
2018-09-06T17:39:32.878Z,2.90
2018-09-06T17:42:01.783Z,2.63
2018-09-06T17:44:30.693Z,2.50
2018-09-06T17:46:59.570Z,3.80
2018-09-06T17:49:28.631Z,4.10
2018-09-06T17:51:57.232Z,3.63
2018-09-06T17:54:26.264Z,3.10
2018-09-06T17:56:55.008Z,3.33
2018-09-06T17:59:24.117Z,3.47
2018-09-06T18:01:53.115Z,3.20
2018-09-06T18:04:22.091Z,3.47
2018-09-06T18:06:51.713Z,3.17
2018-09-06T18:09:20.469Z,3.10
2018-09-06T18:11:49.156Z,3.50
2018-09-06T18:14:18.144Z,3.47
2018-09-06T18:16:46.833Z,3.57
2018-09-06T18:19:15.477Z,3.23
2018-09-06T18:21:44.474Z,3.90
2018-09-06T18:24:13.447Z,4.97
2018-09-06T18:26:42.246Z,4.50
2018-09-06T18:29:11.050Z,4.27
2018-09-06T18:31:39.878Z,4.30
2018-09-06T18:34:08.788Z,3.57
2018-09-06T18:36:37.727Z,3.57
2018-09-06T18:39:07.637Z,3.70
2018-09-06T18:41:37.182Z,4.20
2018-09-06T18:44:05.961Z,3.80
2018-09-06T18:46:34.864Z,4.10
2018-09-06T18:49:03.918Z,4.20
2018-09-06T18:51:32.786Z,3.53
2018-09-06T18:54:01.536Z,3.70
2018-09-06T18:56:30.380Z,3.50
2018-09-06T18:58:59.208Z,3.47
2018-09-06T19:01:28.055Z,4.03
2018-09-06T19:03:57.449Z,3.67
2018-09-06T19:06:26.529Z,3.67
2018-09-06T19:08:55.251Z,3.93
2018-09-06T19:11:24.329Z,4.37
2018-09-06T19:13:53.142Z,3.90
2018-09-06T19:16:21.881Z,3.73
2018-09-06T19:18:51.177Z,4.33
2018-09-06T19:21:20.105Z,4.00
2018-09-06T19:23:49.017Z,3.73
2018-09-06T19:26:17.958Z,4.03
2018-09-06T19:28:46.707Z,4.00
2018-09-06T19:31:15.606Z,4.30
2018-09-06T19:33:44.386Z,4.90
2018-09-06T19:36:13.057Z,4.07
2018-09-06T19:38:41.876Z,4.80
2018-09-06T19:41:10.751Z,4.17
2018-09-06T19:43:39.558Z,4.40
2018-09-06T19:46:08.515Z,4.30
2018-09-06T19:48:37.889Z,4.13
2018-09-06T19:51:07.021Z,4.30
2018-09-06T19:53:35.817Z,4.93
2018-09-06T19:56:04.723Z,4.30
2018-09-06T19:58:33.436Z,3.97
2018-09-06T20:01:02.146Z,3.97
2018-09-06T20:03:30.805Z,4.27
2018-09-06T20:05:59.746Z,4.30
2018-09-06T20:08:28.737Z,4.40
2018-09-06T20:10:57.775Z,4.27
2018-09-06T20:13:26.493Z,4.33
2018-09-06T20:15:55.259Z,3.70
2018-09-06T20:18:24.931Z,4.00
2018-09-06T20:20:53.673Z,3.47
2018-09-06T20:23:22.388Z,4.00
2018-09-06T20:25:51.333Z,3.20
2018-09-06T20:28:20.115Z,3.53
2018-09-06T20:30:49.015Z,3.33
2018-09-06T20:33:17.868Z,3.20
2018-09-06T20:35:46.841Z,3.30
2018-09-06T20:38:15.559Z,3.63
2018-09-06T20:40:44.293Z,3.23
2018-09-06T20:43:12.971Z,3.50
2018-09-06T20:45:41.599Z,3.33
2018-09-06T20:48:10.432Z,3.60
2018-09-06T20:50:39.168Z,3.30
2018-09-06T20:53:08.192Z,3.30
2018-09-06T20:55:36.928Z,3.17
2018-09-06T20:58:05.829Z,3.67
2018-09-06T21:00:34.686Z,3.13
2018-09-06T21:03:03.308Z,3.23
2018-09-06T21:05:32.294Z,3.17
2018-09-06T21:08:01.214Z,3.37
2018-09-06T21:10:30.082Z,3.17
2018-09-06T21:12:59.474Z,2.80
2018-09-06T21:15:28.247Z,2.97
2018-09-06T21:17:57.087Z,2.70
2018-09-06T21:20:25.867Z,2.87
2018-09-06T21:22:54.459Z,3.13
2018-09-06T21:25:23.237Z,2.67
2018-09-06T21:27:52.073Z,3.03
2018-09-06T21:30:21.034Z,2.90
2018-09-06T21:32:49.859Z,2.57
2018-09-06T21:35:18.748Z,2.83
2018-09-06T21:40:22.880Z,2.70
2018-09-06T21:42:51.861Z,3.10
2018-09-06T21:45:20.752Z,3.07
2018-09-06T21:47:49.554Z,3.27
2018-09-06T21:50:18.182Z,2.80
2018-09-06T21:52:46.947Z,3.00
2018-09-06T21:55:15.619Z,2.73
2018-09-06T21:57:44.414Z,2.63
2018-09-06T22:00:13.114Z,2.57
2018-09-06T22:02:47.098Z,2.73
2018-09-06T22:05:15.811Z,2.50
2018-09-06T22:07:44.503Z,2.53
2018-09-06T22:10:13.520Z,2.27
2018-09-06T22:12:42.243Z,2.50
2018-09-06T22:15:11.075Z,2.43
2018-09-06T22:17:39.915Z,2.50
2018-09-06T22:20:08.702Z,2.30
2018-09-06T22:22:37.330Z,2.20
2018-09-06T22:25:06.453Z,2.07
2018-09-06T22:27:35.318Z,1.87
2018-09-06T22:30:04.827Z,2.10
2018-09-06T22:32:33.690Z,2.30
2018-09-06T22:35:02.411Z,2.07
2018-09-06T22:37:31.497Z,1.90
2018-09-06T22:40:00.570Z,1.87
2018-09-06T22:42:29.267Z,2.10
2018-09-06T22:44:57.959Z,2.07
2018-09-06T22:47:26.685Z,2.00
2018-09-06T22:49:55.402Z,2.40
2018-09-06T22:52:24.138Z,1.80
2018-09-06T22:54:53.011Z,1.97
2018-09-06T22:57:21.603Z,2.20
2018-09-06T22:59:50.255Z,2.00
2018-09-06T23:02:18.966Z,2.07
2018-09-06T23:04:47.681Z,2.00
2018-09-06T23:07:16.486Z,1.80
2018-09-06T23:09:45.416Z,2.23
2018-09-06T23:12:14.083Z,1.70
2018-09-06T23:14:42.763Z,2.20
2018-09-06T23:17:11.413Z,2.20
2018-09-06T23:19:40.027Z,2.30
2018-09-06T23:22:08.803Z,2.47
2018-09-06T23:24:37.694Z,2.17
2018-09-06T23:27:06.472Z,2.03
2018-09-06T23:29:35.162Z,1.80
2018-09-06T23:32:04.768Z,2.13
2018-09-06T23:34:36.877Z,2.00
2018-09-06T23:37:06.619Z,2.00
2018-09-06T23:39:35.776Z,1.97
2018-09-06T23:42:04.457Z,2.00
2018-09-06T23:44:33.313Z,2.00
2018-09-06T23:47:02.579Z,2.00
2018-09-06T23:49:31.299Z,2.00
2018-09-06T23:52:00.102Z,2.20
2018-09-06T23:54:29.109Z,2.17
2018-09-06T23:56:57.702Z,2.20
2018-09-06T23:59:26.399Z,2.10
